sensor_id;sensor_type;location;lat;lon;timestamp;temperature;humidity
51839;DHT22;37886;53.174;6.368;2022-12-29T00:01:55;10.20;99.90
51839;DHT22;37886;53.174;6.368;2022-12-29T00:04:21;10.10;99.90
51839;DHT22;37886;53.174;6.368;2022-12-29T00:06:47;10.00;99.90
51839;DHT22;37886;53.174;6.368;2022-12-29T00:09:16;10.00;99.90
51839;DHT22;37886;53.174;6.368;2022-12-29T00:11:42;10.10;99.90
51839;DHT22;37886;53.174;6.368;2022-12-29T00:14:09;10.20;99.90
51839;DHT22;37886;53.174;6.368;2022-12-29T00:16:54;10.20;99.90
51839;DHT22;37886;53.174;6.368;2022-12-29T00:19:20;10.30;99.90
51839;DHT22;37886;53.174;6.368;2022-12-29T00:22:04;10.30;99.90
51839;DHT22;37886;53.174;6.368;2022-12-29T00:24:49;10.40;99.90
51839;DHT22;37886;53.174;6.368;2022-12-29T00:27:31;10.40;99.90
51839;DHT22;37886;53.174;6.368;2022-12-29T00:30:20;10.40;99.90
51839;DHT22;37886;53.174;6.368;2022-12-29T00:33:12;10.50;99.90
51839;DHT22;37886;53.174;6.368;2022-12-29T00:36:25;10.50;99.90
51839;DHT22;37886;53.174;6.368;2022-12-29T00:39:06;10.50;99.90
51839;DHT22;37886;53.174;6.368;2022-12-29T00:41:50;10.50;99.90
51839;DHT22;37886;53.174;6.368;2022-12-29T00:44:34;10.50;99.90
51839;DHT22;37886;53.174;6.368;2022-12-29T00:47:00;10.60;99.90
51839;DHT22;37886;53.174;6.368;2022-12-29T00:49:28;10.60;99.90
51839;DHT22;37886;53.174;6.368;2022-12-29T00:52:05;10.50;99.90
51839;DHT22;37886;53.174;6.368;2022-12-29T00:54:36;10.60;99.90
51839;DHT22;37886;53.174;6.368;2022-12-29T00:57:03;10.60;99.90
51839;DHT22;37886;53.174;6.368;2022-12-29T00:59:30;10.60;99.90
51839;DHT22;37886;53.174;6.368;2022-12-29T01:01:56;10.50;99.90
51839;DHT22;37886;53.174;6.368;2022-12-29T01:04:23;10.60;99.90
51839;DHT22;37886;53.174;6.368;2022-12-29T01:06:50;10.60;99.90
51839;DHT22;37886;53.174;6.368;2022-12-29T01:09:16;10.60;99.90
51839;DHT22;37886;53.174;6.368;2022-12-29T01:12:01;10.60;99.90
51839;DHT22;37886;53.174;6.368;2022-12-29T01:14:27;10.70;99.90
51839;DHT22;37886;53.174;6.368;2022-12-29T01:16:53;10.60;99.90
51839;DHT22;37886;53.174;6.368;2022-12-29T01:19:19;10.60;99.90
51839;DHT22;37886;53.174;6.368;2022-12-29T01:21:46;10.70;99.90
51839;DHT22;37886;53.174;6.368;2022-12-29T01:24:13;10.60;99.90
51839;DHT22;37886;53.174;6.368;2022-12-29T01:26:39;10.60;99.90
51839;DHT22;37886;53.174;6.368;2022-12-29T01:29:04;10.60;99.90
51839;DHT22;37886;53.174;6.368;2022-12-29T01:31:30;10.60;99.90
51839;DHT22;37886;53.174;6.368;2022-12-29T01:33:56;10.50;99.90
51839;DHT22;37886;53.174;6.368;2022-12-29T01:36:21;10.60;99.90
51839;DHT22;37886;53.174;6.368;2022-12-29T01:38:47;10.50;99.90
51839;DHT22;37886;53.174;6.368;2022-12-29T01:41:15;10.50;99.90
51839;DHT22;37886;53.174;6.368;2022-12-29T01:48:42;10.20;99.90
51839;DHT22;37886;53.174;6.368;2022-12-29T01:51:07;10.10;99.90
51839;DHT22;37886;53.174;6.368;2022-12-29T01:53:34;10.20;99.90
51839;DHT22;37886;53.174;6.368;2022-12-29T01:56:04;10.10;99.90
51839;DHT22;37886;53.174;6.368;2022-12-29T01:58:35;10.10;99.90
51839;DHT22;37886;53.174;6.368;2022-12-29T02:01:04;10.10;99.90
51839;DHT22;37886;53.174;6.368;2022-12-29T02:03:30;10.00;99.90
51839;DHT22;37886;53.174;6.368;2022-12-29T02:06:24;10.00;99.90
51839;DHT22;37886;53.174;6.368;2022-12-29T02:08:53;10.00;99.90
51839;DHT22;37886;53.174;6.368;2022-12-29T02:11:23;9.90;99.90
51839;DHT22;37886;53.174;6.368;2022-12-29T02:13:49;9.90;99.90
51839;DHT22;37886;53.174;6.368;2022-12-29T02:24:32;9.90;99.90
51839;DHT22;37886;53.174;6.368;2022-12-29T02:37:35;10.10;99.90
51839;DHT22;37886;53.174;6.368;2022-12-29T02:40:20;10.10;99.90
51839;DHT22;37886;53.174;6.368;2022-12-29T02:48:32;10.10;99.90
51839;DHT22;37886;53.174;6.368;2022-12-29T02:51:09;10.20;99.90
51839;DHT22;37886;53.174;6.368;2022-12-29T02:53:37;10.20;99.90
51839;DHT22;37886;53.174;6.368;2022-12-29T02:56:21;10.20;99.90
51839;DHT22;37886;53.174;6.368;2022-12-29T02:58:47;10.30;99.90
51839;DHT22;37886;53.174;6.368;2022-12-29T03:09:19;10.40;99.90
51839;DHT22;37886;53.174;6.368;2022-12-29T03:12:08;10.60;99.90
51839;DHT22;37886;53.174;6.368;2022-12-29T03:20:12;10.60;99.90
51839;DHT22;37886;53.174;6.368;2022-12-29T03:22:42;10.50;99.90
51839;DHT22;37886;53.174;6.368;2022-12-29T03:25:25;10.50;99.90
51839;DHT22;37886;53.174;6.368;2022-12-29T03:28:17;10.60;99.90
51839;DHT22;37886;53.174;6.368;2022-12-29T03:30:46;10.50;99.90
51839;DHT22;37886;53.174;6.368;2022-12-29T03:33:15;10.50;99.90
51839;DHT22;37886;53.174;6.368;2022-12-29T03:35:44;10.40;99.90
51839;DHT22;37886;53.174;6.368;2022-12-29T03:40:48;10.30;99.90
51839;DHT22;37886;53.174;6.368;2022-12-29T03:43:15;10.30;99.90
51839;DHT22;37886;53.174;6.368;2022-12-29T03:45:41;10.40;99.90
51839;DHT22;37886;53.174;6.368;2022-12-29T03:48:07;10.40;99.90
51839;DHT22;37886;53.174;6.368;2022-12-29T03:50:32;10.40;99.90
51839;DHT22;37886;53.174;6.368;2022-12-29T03:52:58;10.30;99.90
51839;DHT22;37886;53.174;6.368;2022-12-29T03:55:24;10.20;99.90
51839;DHT22;37886;53.174;6.368;2022-12-29T03:57:49;10.20;99.90
51839;DHT22;37886;53.174;6.368;2022-12-29T04:00:15;10.30;99.90
51839;DHT22;37886;53.174;6.368;2022-12-29T04:02:41;10.10;99.90
51839;DHT22;37886;53.174;6.368;2022-12-29T04:05:07;10.10;99.90
51839;DHT22;37886;53.174;6.368;2022-12-29T04:07:33;10.20;99.90
51839;DHT22;37886;53.174;6.368;2022-12-29T04:09:59;10.10;99.90
51839;DHT22;37886;53.174;6.368;2022-12-29T04:12:24;10.20;99.90
51839;DHT22;37886;53.174;6.368;2022-12-29T04:14:50;10.30;99.90
51839;DHT22;37886;53.174;6.368;2022-12-29T04:17:16;10.40;99.90
51839;DHT22;37886;53.174;6.368;2022-12-29T04:19:41;10.50;99.90
51839;DHT22;37886;53.174;6.368;2022-12-29T04:22:07;10.40;99.90
51839;DHT22;37886;53.174;6.368;2022-12-29T04:24:33;10.30;99.90
51839;DHT22;37886;53.174;6.368;2022-12-29T04:26:59;10.40;99.90
51839;DHT22;37886;53.174;6.368;2022-12-29T04:29:24;10.40;99.90
51839;DHT22;37886;53.174;6.368;2022-12-29T04:31:50;10.30;99.90
51839;DHT22;37886;53.174;6.368;2022-12-29T04:34:16;10.30;99.90
51839;DHT22;37886;53.174;6.368;2022-12-29T04:36:41;10.30;99.90
51839;DHT22;37886;53.174;6.368;2022-12-29T04:39:07;10.20;99.90
51839;DHT22;37886;53.174;6.368;2022-12-29T04:41:33;10.00;99.90
51839;DHT22;37886;53.174;6.368;2022-12-29T04:43:59;10.00;99.90
51839;DHT22;37886;53.174;6.368;2022-12-29T04:46:24;10.00;99.90
51839;DHT22;37886;53.174;6.368;2022-12-29T04:48:50;9.90;99.90
51839;DHT22;37886;53.174;6.368;2022-12-29T04:51:16;9.90;99.90
51839;DHT22;37886;53.174;6.368;2022-12-29T04:53:42;9.90;99.90
51839;DHT22;37886;53.174;6.368;2022-12-29T04:56:08;9.80;99.90
51839;DHT22;37886;53.174;6.368;2022-12-29T04:58:35;9.90;99.90
51839;DHT22;37886;53.174;6.368;2022-12-29T05:01:01;9.80;99.90
51839;DHT22;37886;53.174;6.368;2022-12-29T05:03:26;9.70;99.90
51839;DHT22;37886;53.174;6.368;2022-12-29T05:05:56;9.60;99.90
51839;DHT22;37886;53.174;6.368;2022-12-29T05:08:22;9.60;99.90
51839;DHT22;37886;53.174;6.368;2022-12-29T05:10:50;9.70;99.90
51839;DHT22;37886;53.174;6.368;2022-12-29T05:13:16;9.70;99.90
51839;DHT22;37886;53.174;6.368;2022-12-29T05:15:50;9.70;99.90
51839;DHT22;37886;53.174;6.368;2022-12-29T05:18:16;9.60;99.90
51839;DHT22;37886;53.174;6.368;2022-12-29T05:20:42;9.60;99.90
51839;DHT22;37886;53.174;6.368;2022-12-29T05:23:08;9.50;99.90
51839;DHT22;37886;53.174;6.368;2022-12-29T05:25:33;9.60;99.90
51839;DHT22;37886;53.174;6.368;2022-12-29T05:27:59;9.50;99.90
51839;DHT22;37886;53.174;6.368;2022-12-29T05:30:25;9.50;99.90
51839;DHT22;37886;53.174;6.368;2022-12-29T05:32:51;9.50;99.90
51839;DHT22;37886;53.174;6.368;2022-12-29T05:35:17;9.50;99.90
51839;DHT22;37886;53.174;6.368;2022-12-29T05:37:45;9.60;99.90
51839;DHT22;37886;53.174;6.368;2022-12-29T05:40:11;9.40;99.90
51839;DHT22;37886;53.174;6.368;2022-12-29T05:42:37;9.50;99.90
51839;DHT22;37886;53.174;6.368;2022-12-29T05:45:03;9.50;99.90
51839;DHT22;37886;53.174;6.368;2022-12-29T05:47:29;9.50;99.90
51839;DHT22;37886;53.174;6.368;2022-12-29T05:49:55;9.50;99.90
51839;DHT22;37886;53.174;6.368;2022-12-29T05:52:20;9.60;99.90
51839;DHT22;37886;53.174;6.368;2022-12-29T05:54:46;9.50;99.90
51839;DHT22;37886;53.174;6.368;2022-12-29T05:57:12;9.60;99.90
51839;DHT22;37886;53.174;6.368;2022-12-29T05:59:38;9.60;99.90
51839;DHT22;37886;53.174;6.368;2022-12-29T06:02:03;9.70;99.90
51839;DHT22;37886;53.174;6.368;2022-12-29T06:04:29;9.70;99.90
51839;DHT22;37886;53.174;6.368;2022-12-29T06:06:55;9.60;99.90
51839;DHT22;37886;53.174;6.368;2022-12-29T06:09:20;9.70;99.90
51839;DHT22;37886;53.174;6.368;2022-12-29T06:11:46;9.60;99.90
51839;DHT22;37886;53.174;6.368;2022-12-29T06:14:12;9.60;99.90
51839;DHT22;37886;53.174;6.368;2022-12-29T06:16:53;9.80;99.90
51839;DHT22;37886;53.174;6.368;2022-12-29T06:19:33;9.60;99.90
51839;DHT22;37886;53.174;6.368;2022-12-29T06:22:20;9.70;99.90
51839;DHT22;37886;53.174;6.368;2022-12-29T06:24:45;9.70;99.90
51839;DHT22;37886;53.174;6.368;2022-12-29T06:27:11;9.60;99.90
51839;DHT22;37886;53.174;6.368;2022-12-29T06:29:37;9.50;99.90
51839;DHT22;37886;53.174;6.368;2022-12-29T06:32:05;9.50;99.90
51839;DHT22;37886;53.174;6.368;2022-12-29T06:34:31;9.50;99.90
51839;DHT22;37886;53.174;6.368;2022-12-29T06:36:56;9.50;99.90
51839;DHT22;37886;53.174;6.368;2022-12-29T06:39:22;9.50;99.90
51839;DHT22;37886;53.174;6.368;2022-12-29T06:41:48;9.40;99.90
51839;DHT22;37886;53.174;6.368;2022-12-29T06:44:16;9.30;99.90
51839;DHT22;37886;53.174;6.368;2022-12-29T06:46:42;9.40;99.90
51839;DHT22;37886;53.174;6.368;2022-12-29T06:49:08;9.40;99.90
51839;DHT22;37886;53.174;6.368;2022-12-29T06:51:33;9.40;99.90
51839;DHT22;37886;53.174;6.368;2022-12-29T06:53:59;9.30;99.90
51839;DHT22;37886;53.174;6.368;2022-12-29T06:56:25;9.30;99.90
51839;DHT22;37886;53.174;6.368;2022-12-29T06:58:50;9.20;99.90
51839;DHT22;37886;53.174;6.368;2022-12-29T07:01:16;9.30;99.90
51839;DHT22;37886;53.174;6.368;2022-12-29T07:03:42;9.30;99.90
51839;DHT22;37886;53.174;6.368;2022-12-29T07:06:08;9.20;99.90
51839;DHT22;37886;53.174;6.368;2022-12-29T07:08:34;9.20;99.90
51839;DHT22;37886;53.174;6.368;2022-12-29T07:10:59;9.30;99.90
51839;DHT22;37886;53.174;6.368;2022-12-29T07:13:25;9.40;99.90
51839;DHT22;37886;53.174;6.368;2022-12-29T07:15:51;9.40;99.90
51839;DHT22;37886;53.174;6.368;2022-12-29T07:18:17;9.30;99.90
51839;DHT22;37886;53.174;6.368;2022-12-29T07:20:42;9.40;99.90
51839;DHT22;37886;53.174;6.368;2022-12-29T07:23:08;9.40;99.90
51839;DHT22;37886;53.174;6.368;2022-12-29T07:25:34;9.50;99.90
51839;DHT22;37886;53.174;6.368;2022-12-29T07:28:02;9.50;99.90
51839;DHT22;37886;53.174;6.368;2022-12-29T07:30:28;9.50;99.90
51839;DHT22;37886;53.174;6.368;2022-12-29T07:32:53;9.50;99.90
51839;DHT22;37886;53.174;6.368;2022-12-29T07:35:19;9.50;99.90
51839;DHT22;37886;53.174;6.368;2022-12-29T07:37:45;9.60;99.90
51839;DHT22;37886;53.174;6.368;2022-12-29T07:40:11;9.60;99.90
51839;DHT22;37886;53.174;6.368;2022-12-29T07:42:38;9.70;99.90
51839;DHT22;37886;53.174;6.368;2022-12-29T07:45:04;9.60;99.90
51839;DHT22;37886;53.174;6.368;2022-12-29T07:47:30;9.80;99.90
51839;DHT22;37886;53.174;6.368;2022-12-29T07:49:55;9.70;99.90
51839;DHT22;37886;53.174;6.368;2022-12-29T07:52:21;9.60;99.90
51839;DHT22;37886;53.174;6.368;2022-12-29T07:54:47;9.70;99.90
51839;DHT22;37886;53.174;6.368;2022-12-29T07:57:13;9.70;99.90
51839;DHT22;37886;53.174;6.368;2022-12-29T07:59:39;9.60;99.90
51839;DHT22;37886;53.174;6.368;2022-12-29T08:02:04;9.40;99.90
51839;DHT22;37886;53.174;6.368;2022-12-29T08:04:33;9.40;99.90
51839;DHT22;37886;53.174;6.368;2022-12-29T08:06:59;9.50;99.90
51839;DHT22;37886;53.174;6.368;2022-12-29T08:09:25;9.50;99.90
51839;DHT22;37886;53.174;6.368;2022-12-29T08:11:51;9.50;99.90
51839;DHT22;37886;53.174;6.368;2022-12-29T08:14:16;9.70;99.90
51839;DHT22;37886;53.174;6.368;2022-12-29T08:16:42;9.70;99.90
51839;DHT22;37886;53.174;6.368;2022-12-29T08:19:10;9.70;99.90
51839;DHT22;37886;53.174;6.368;2022-12-29T08:21:37;9.70;99.90
51839;DHT22;37886;53.174;6.368;2022-12-29T08:24:03;9.70;99.90
51839;DHT22;37886;53.174;6.368;2022-12-29T08:26:28;9.70;99.90
51839;DHT22;37886;53.174;6.368;2022-12-29T08:28:54;9.80;99.90
51839;DHT22;37886;53.174;6.368;2022-12-29T08:31:21;9.60;99.90
51839;DHT22;37886;53.174;6.368;2022-12-29T08:33:47;9.70;99.90
51839;DHT22;37886;53.174;6.368;2022-12-29T08:36:13;9.60;99.90
51839;DHT22;37886;53.174;6.368;2022-12-29T08:38:39;9.50;99.90
51839;DHT22;37886;53.174;6.368;2022-12-29T08:41:05;9.50;99.90
51839;DHT22;37886;53.174;6.368;2022-12-29T08:43:31;9.40;99.90
51839;DHT22;37886;53.174;6.368;2022-12-29T08:45:59;9.40;99.90
51839;DHT22;37886;53.174;6.368;2022-12-29T08:48:26;9.40;99.90
51839;DHT22;37886;53.174;6.368;2022-12-29T08:50:52;9.30;99.90
51839;DHT22;37886;53.174;6.368;2022-12-29T08:53:18;9.30;99.90
51839;DHT22;37886;53.174;6.368;2022-12-29T08:55:54;9.30;99.90
51839;DHT22;37886;53.174;6.368;2022-12-29T08:58:20;9.30;99.90
51839;DHT22;37886;53.174;6.368;2022-12-29T09:00:45;9.40;99.90
51839;DHT22;37886;53.174;6.368;2022-12-29T09:03:11;9.30;99.90
51839;DHT22;37886;53.174;6.368;2022-12-29T09:05:37;9.30;99.90
51839;DHT22;37886;53.174;6.368;2022-12-29T09:08:03;9.30;99.90
51839;DHT22;37886;53.174;6.368;2022-12-29T09:10:30;9.10;99.90
51839;DHT22;37886;53.174;6.368;2022-12-29T09:12:56;9.10;99.90
51839;DHT22;37886;53.174;6.368;2022-12-29T09:15:21;9.10;99.90
51839;DHT22;37886;53.174;6.368;2022-12-29T09:17:47;9.10;99.90
51839;DHT22;37886;53.174;6.368;2022-12-29T09:20:15;9.20;99.90
51839;DHT22;37886;53.174;6.368;2022-12-29T09:22:42;9.30;99.90
51839;DHT22;37886;53.174;6.368;2022-12-29T09:25:09;9.30;99.90
51839;DHT22;37886;53.174;6.368;2022-12-29T09:27:35;9.20;99.90
51839;DHT22;37886;53.174;6.368;2022-12-29T09:30:03;9.20;99.90
51839;DHT22;37886;53.174;6.368;2022-12-29T09:32:29;9.30;99.90
51839;DHT22;37886;53.174;6.368;2022-12-29T09:34:54;9.20;99.90
51839;DHT22;37886;53.174;6.368;2022-12-29T09:37:20;9.20;99.90
51839;DHT22;37886;53.174;6.368;2022-12-29T09:39:46;9.20;99.90
51839;DHT22;37886;53.174;6.368;2022-12-29T09:42:59;9.20;99.90
51839;DHT22;37886;53.174;6.368;2022-12-29T09:45:20;9.10;99.90
51839;DHT22;37886;53.174;6.368;2022-12-29T09:47:51;9.10;99.90
51839;DHT22;37886;53.174;6.368;2022-12-29T09:50:26;9.10;99.90
51839;DHT22;37886;53.174;6.368;2022-12-29T09:53:12;9.20;99.90
51839;DHT22;37886;53.174;6.368;2022-12-29T09:55:44;9.20;99.90
51839;DHT22;37886;53.174;6.368;2022-12-29T10:03:36;9.00;99.90
51839;DHT22;37886;53.174;6.368;2022-12-29T10:06:09;9.00;99.90
51839;DHT22;37886;53.174;6.368;2022-12-29T10:11:22;8.80;99.90
51839;DHT22;37886;53.174;6.368;2022-12-29T10:14:21;8.70;99.90
51839;DHT22;37886;53.174;6.368;2022-12-29T10:17:17;8.70;99.90
51839;DHT22;37886;53.174;6.368;2022-12-29T10:20:12;8.70;99.90
51839;DHT22;37886;53.174;6.368;2022-12-29T10:25:20;8.70;99.90
51839;DHT22;37886;53.174;6.368;2022-12-29T10:27:49;8.70;99.90
51839;DHT22;37886;53.174;6.368;2022-12-29T10:30:16;8.70;99.90
51839;DHT22;37886;53.174;6.368;2022-12-29T10:35:37;8.70;99.90
51839;DHT22;37886;53.174;6.368;2022-12-29T10:41:09;8.80;99.90
51839;DHT22;37886;53.174;6.368;2022-12-29T10:43:48;8.80;99.90
51839;DHT22;37886;53.174;6.368;2022-12-29T10:46:27;8.90;99.90
51839;DHT22;37886;53.174;6.368;2022-12-29T10:48:54;9.00;99.90
51839;DHT22;37886;53.174;6.368;2022-12-29T10:51:29;9.00;99.90
51839;DHT22;37886;53.174;6.368;2022-12-29T10:54:04;9.00;99.90
51839;DHT22;37886;53.174;6.368;2022-12-29T10:56:35;9.00;99.90
51839;DHT22;37886;53.174;6.368;2022-12-29T11:01:58;9.00;99.90
51839;DHT22;37886;53.174;6.368;2022-12-29T11:07:25;9.10;99.90
51839;DHT22;37886;53.174;6.368;2022-12-29T11:09:51;9.10;99.90
51839;DHT22;37886;53.174;6.368;2022-12-29T11:12:21;9.10;99.90
51839;DHT22;37886;53.174;6.368;2022-12-29T11:15:29;9.10;99.90
51839;DHT22;37886;53.174;6.368;2022-12-29T11:17:56;9.10;99.90
51839;DHT22;37886;53.174;6.368;2022-12-29T11:20:37;9.20;99.90
51839;DHT22;37886;53.174;6.368;2022-12-29T11:28:42;9.30;99.90
51839;DHT22;37886;53.174;6.368;2022-12-29T11:31:09;9.30;99.90
51839;DHT22;37886;53.174;6.368;2022-12-29T11:33:39;9.30;99.90
51839;DHT22;37886;53.174;6.368;2022-12-29T11:36:17;9.30;99.90
51839;DHT22;37886;53.174;6.368;2022-12-29T11:38:54;9.40;99.90
51839;DHT22;37886;53.174;6.368;2022-12-29T11:41:26;9.40;99.90
51839;DHT22;37886;53.174;6.368;2022-12-29T11:43:53;9.40;99.90
51839;DHT22;37886;53.174;6.368;2022-12-29T11:46:25;9.40;99.90
51839;DHT22;37886;53.174;6.368;2022-12-29T11:48:52;9.40;99.90
51839;DHT22;37886;53.174;6.368;2022-12-29T11:51:26;9.30;99.90
51839;DHT22;37886;53.174;6.368;2022-12-29T11:54:01;9.30;99.90
51839;DHT22;37886;53.174;6.368;2022-12-29T11:56:37;9.30;99.90
51839;DHT22;37886;53.174;6.368;2022-12-29T12:02:27;9.30;99.90
51839;DHT22;37886;53.174;6.368;2022-12-29T12:04:52;9.30;99.90
51839;DHT22;37886;53.174;6.368;2022-12-29T12:08:11;9.40;99.90
51839;DHT22;37886;53.174;6.368;2022-12-29T12:10:47;9.40;99.90
51839;DHT22;37886;53.174;6.368;2022-12-29T12:16:22;9.40;99.90
51839;DHT22;37886;53.174;6.368;2022-12-29T12:18:53;9.50;99.90
51839;DHT22;37886;53.174;6.368;2022-12-29T12:21:23;9.70;99.90
51839;DHT22;37886;53.174;6.368;2022-12-29T12:24:13;9.70;99.90
51839;DHT22;37886;53.174;6.368;2022-12-29T12:26:59;9.70;99.90
51839;DHT22;37886;53.174;6.368;2022-12-29T12:32:20;9.60;99.90
51839;DHT22;37886;53.174;6.368;2022-12-29T12:34:48;9.50;99.90
51839;DHT22;37886;53.174;6.368;2022-12-29T12:42:32;9.50;99.90
51839;DHT22;37886;53.174;6.368;2022-12-29T12:45:25;9.50;99.90
51839;DHT22;37886;53.174;6.368;2022-12-29T12:48:13;9.50;99.90
51839;DHT22;37886;53.174;6.368;2022-12-29T12:56:47;9.70;99.90
51839;DHT22;37886;53.174;6.368;2022-12-29T13:13:06;9.40;99.90
51839;DHT22;37886;53.174;6.368;2022-12-29T13:18:48;9.50;99.90
51839;DHT22;37886;53.174;6.368;2022-12-29T13:24:16;9.40;99.90
51839;DHT22;37886;53.174;6.368;2022-12-29T13:26:54;9.40;99.90
51839;DHT22;37886;53.174;6.368;2022-12-29T13:37:27;9.40;99.90
51839;DHT22;37886;53.174;6.368;2022-12-29T13:40:01;9.50;99.90
51839;DHT22;37886;53.174;6.368;2022-12-29T13:42:29;9.50;99.90
51839;DHT22;37886;53.174;6.368;2022-12-29T13:45:20;9.50;99.90
51839;DHT22;37886;53.174;6.368;2022-12-29T13:48:17;9.40;99.90
51839;DHT22;37886;53.174;6.368;2022-12-29T13:50:54;9.50;99.90
51839;DHT22;37886;53.174;6.368;2022-12-29T13:56:38;9.60;99.90
51839;DHT22;37886;53.174;6.368;2022-12-29T14:01:59;9.70;99.90
51839;DHT22;37886;53.174;6.368;2022-12-29T14:04:29;9.60;99.90
51839;DHT22;37886;53.174;6.368;2022-12-29T14:07:15;9.50;99.90
51839;DHT22;37886;53.174;6.368;2022-12-29T14:09:48;9.40;99.90
51839;DHT22;37886;53.174;6.368;2022-12-29T14:12:42;9.30;99.90
51839;DHT22;37886;53.174;6.368;2022-12-29T14:17:34;9.20;99.90
51839;DHT22;37886;53.174;6.368;2022-12-29T14:20:01;9.10;99.90
51839;DHT22;37886;53.174;6.368;2022-12-29T14:22:28;9.10;99.90
51839;DHT22;37886;53.174;6.368;2022-12-29T14:24:54;9.00;99.90
51839;DHT22;37886;53.174;6.368;2022-12-29T14:29:50;8.80;99.90
51839;DHT22;37886;53.174;6.368;2022-12-29T14:34:55;8.80;99.90
51839;DHT22;37886;53.174;6.368;2022-12-29T14:42:38;8.80;99.90
51839;DHT22;37886;53.174;6.368;2022-12-29T14:45:26;8.80;99.90
51839;DHT22;37886;53.174;6.368;2022-12-29T14:47:53;8.60;99.90
51839;DHT22;37886;53.174;6.368;2022-12-29T14:50:24;8.60;99.90
51839;DHT22;37886;53.174;6.368;2022-12-29T14:52:58;8.60;99.90
51839;DHT22;37886;53.174;6.368;2022-12-29T14:55:44;8.60;99.90
51839;DHT22;37886;53.174;6.368;2022-12-29T15:02:11;8.40;99.90
51839;DHT22;37886;53.174;6.368;2022-12-29T15:04:25;8.50;99.90
51839;DHT22;37886;53.174;6.368;2022-12-29T15:06:53;8.60;99.90
51839;DHT22;37886;53.174;6.368;2022-12-29T15:10:00;8.50;99.90
51839;DHT22;37886;53.174;6.368;2022-12-29T15:12:51;8.50;99.90
51839;DHT22;37886;53.174;6.368;2022-12-29T15:15:23;8.30;99.90
51839;DHT22;37886;53.174;6.368;2022-12-29T15:17:50;8.30;99.90
51839;DHT22;37886;53.174;6.368;2022-12-29T15:20:30;8.20;99.90
51839;DHT22;37886;53.174;6.368;2022-12-29T15:25:22;8.20;99.90
51839;DHT22;37886;53.174;6.368;2022-12-29T15:27:50;8.20;99.90
51839;DHT22;37886;53.174;6.368;2022-12-29T15:30:17;8.10;99.90
51839;DHT22;37886;53.174;6.368;2022-12-29T15:32:44;8.10;99.90
51839;DHT22;37886;53.174;6.368;2022-12-29T15:35:32;8.10;99.90
51839;DHT22;37886;53.174;6.368;2022-12-29T15:38:00;8.10;99.90
51839;DHT22;37886;53.174;6.368;2022-12-29T15:40:38;8.10;99.90
51839;DHT22;37886;53.174;6.368;2022-12-29T15:45:38;8.20;99.90
51839;DHT22;37886;53.174;6.368;2022-12-29T15:48:05;8.10;99.90
51839;DHT22;37886;53.174;6.368;2022-12-29T15:50:35;8.10;99.90
51839;DHT22;37886;53.174;6.368;2022-12-29T15:53:02;8.10;99.90
51839;DHT22;37886;53.174;6.368;2022-12-29T15:57:59;8.20;99.90
51839;DHT22;37886;53.174;6.368;2022-12-29T16:00:37;8.20;99.90
51839;DHT22;37886;53.174;6.368;2022-12-29T16:03:05;8.10;99.90
51839;DHT22;37886;53.174;6.368;2022-12-29T16:05:36;8.20;99.90
51839;DHT22;37886;53.174;6.368;2022-12-29T16:08:02;8.20;99.90
51839;DHT22;37886;53.174;6.368;2022-12-29T16:10:33;8.30;99.90
51839;DHT22;37886;53.174;6.368;2022-12-29T16:13:51;8.20;99.90
51839;DHT22;37886;53.174;6.368;2022-12-29T16:15:56;8.10;99.90
51839;DHT22;37886;53.174;6.368;2022-12-29T16:18:27;8.00;99.90
51839;DHT22;37886;53.174;6.368;2022-12-29T16:20:54;8.00;99.90
51839;DHT22;37886;53.174;6.368;2022-12-29T16:23:26;8.00;99.90
51839;DHT22;37886;53.174;6.368;2022-12-29T16:25:53;7.90;99.90
51839;DHT22;37886;53.174;6.368;2022-12-29T16:28:22;7.80;99.90
51839;DHT22;37886;53.174;6.368;2022-12-29T16:31:06;7.80;99.90
51839;DHT22;37886;53.174;6.368;2022-12-29T16:33:48;7.60;99.90
51839;DHT22;37886;53.174;6.368;2022-12-29T16:39:10;7.50;99.90
51839;DHT22;37886;53.174;6.368;2022-12-29T16:41:40;7.30;99.90
51839;DHT22;37886;53.174;6.368;2022-12-29T16:44:29;7.20;99.90
51839;DHT22;37886;53.174;6.368;2022-12-29T16:49:40;7.10;99.90
51839;DHT22;37886;53.174;6.368;2022-12-29T16:52:25;7.10;99.90
51839;DHT22;37886;53.174;6.368;2022-12-29T16:54:56;7.00;99.90
51839;DHT22;37886;53.174;6.368;2022-12-29T16:57:30;7.00;99.90
51839;DHT22;37886;53.174;6.368;2022-12-29T17:00:03;6.90;99.90
51839;DHT22;37886;53.174;6.368;2022-12-29T17:02:31;7.00;99.90
51839;DHT22;37886;53.174;6.368;2022-12-29T17:04:57;7.10;99.90
51839;DHT22;37886;53.174;6.368;2022-12-29T17:07:27;7.00;99.90
51839;DHT22;37886;53.174;6.368;2022-12-29T17:09:53;7.00;99.90
51839;DHT22;37886;53.174;6.368;2022-12-29T17:12:24;7.10;99.90
51839;DHT22;37886;53.174;6.368;2022-12-29T17:15:03;7.10;99.90
51839;DHT22;37886;53.174;6.368;2022-12-29T17:17:58;7.20;99.90
51839;DHT22;37886;53.174;6.368;2022-12-29T17:20:27;7.20;99.90
51839;DHT22;37886;53.174;6.368;2022-12-29T17:22:54;7.30;99.90
51839;DHT22;37886;53.174;6.368;2022-12-29T17:25:28;7.30;99.90
51839;DHT22;37886;53.174;6.368;2022-12-29T17:27:57;7.40;99.90
51839;DHT22;37886;53.174;6.368;2022-12-29T17:30:25;7.40;99.90
51839;DHT22;37886;53.174;6.368;2022-12-29T17:33:03;7.40;99.90
51839;DHT22;37886;53.174;6.368;2022-12-29T17:35:30;7.40;99.90
51839;DHT22;37886;53.174;6.368;2022-12-29T17:37:55;7.50;99.90
51839;DHT22;37886;53.174;6.368;2022-12-29T17:40:24;7.60;99.90
51839;DHT22;37886;53.174;6.368;2022-12-29T17:42:56;7.50;99.90
51839;DHT22;37886;53.174;6.368;2022-12-29T17:45:30;7.60;99.90
51839;DHT22;37886;53.174;6.368;2022-12-29T17:47:57;7.60;99.90
51839;DHT22;37886;53.174;6.368;2022-12-29T17:50:28;7.70;99.90
51839;DHT22;37886;53.174;6.368;2022-12-29T17:53:04;7.60;99.90
51839;DHT22;37886;53.174;6.368;2022-12-29T17:55:31;7.60;99.90
51839;DHT22;37886;53.174;6.368;2022-12-29T17:57:56;7.50;99.90
51839;DHT22;37886;53.174;6.368;2022-12-29T18:00:25;7.60;99.90
51839;DHT22;37886;53.174;6.368;2022-12-29T18:02:56;7.60;99.90
51839;DHT22;37886;53.174;6.368;2022-12-29T18:05:27;7.60;99.90
51839;DHT22;37886;53.174;6.368;2022-12-29T18:07:55;7.50;99.90
51839;DHT22;37886;53.174;6.368;2022-12-29T18:10:23;7.50;99.90
51839;DHT22;37886;53.174;6.368;2022-12-29T18:12:51;7.50;99.90
51839;DHT22;37886;53.174;6.368;2022-12-29T18:15:26;7.50;99.90
51839;DHT22;37886;53.174;6.368;2022-12-29T18:18:08;7.40;99.90
51839;DHT22;37886;53.174;6.368;2022-12-29T18:20:34;7.40;99.90
51839;DHT22;37886;53.174;6.368;2022-12-29T18:23:00;7.50;99.90
51839;DHT22;37886;53.174;6.368;2022-12-29T18:25:46;7.60;99.90
51839;DHT22;37886;53.174;6.368;2022-12-29T18:28:13;7.50;99.90
51839;DHT22;37886;53.174;6.368;2022-12-29T18:30:39;7.50;99.90
51839;DHT22;37886;53.174;6.368;2022-12-29T18:33:05;7.50;99.90
51839;DHT22;37886;53.174;6.368;2022-12-29T18:35:38;7.40;99.90
51839;DHT22;37886;53.174;6.368;2022-12-29T18:38:04;7.40;99.90
51839;DHT22;37886;53.174;6.368;2022-12-29T18:40:34;7.40;99.90
51839;DHT22;37886;53.174;6.368;2022-12-29T18:43:00;7.40;99.90